sensor_id;sensor_type;location;lat;lon;timestamp;P1;durP1;ratioP1;P2;durP2;ratioP2
71423;SDS011;59240;51.370;-0.486;2022-12-29T00:01:58;8.48;;;1.08;;
71423;SDS011;59240;51.370;-0.486;2022-12-29T00:04:24;9.45;;;0.80;;
71423;SDS011;59240;51.370;-0.486;2022-12-29T00:06:51;14.07;;;1.80;;
71423;SDS011;59240;51.370;-0.486;2022-12-29T00:09:18;14.47;;;1.50;;
71423;SDS011;59240;51.370;-0.486;2022-12-29T00:11:45;17.83;;;1.48;;
71423;SDS011;59240;51.370;-0.486;2022-12-29T00:14:12;14.27;;;1.35;;
71423;SDS011;59240;51.370;-0.486;2022-12-29T00:16:57;6.85;;;0.73;;
71423;SDS011;59240;51.370;-0.486;2022-12-29T00:19:24;15.57;;;1.30;;
71423;SDS011;59240;51.370;-0.486;2022-12-29T00:22:10;12.57;;;1.17;;
71423;SDS011;59240;51.370;-0.486;2022-12-29T00:24:56;12.25;;;0.73;;
71423;SDS011;59240;51.370;-0.486;2022-12-29T00:27:26;13.75;;;1.55;;
71423;SDS011;59240;51.370;-0.486;2022-12-29T00:30:17;16.15;;;1.17;;
71423;SDS011;59240;51.370;-0.486;2022-12-29T00:36:11;17.93;;;2.40;;
71423;SDS011;59240;51.370;-0.486;2022-12-29T00:38:45;13.05;;;1.92;;
71423;SDS011;59240;51.370;-0.486;2022-12-29T00:41:34;9.38;;;0.93;;
71423;SDS011;59240;51.370;-0.486;2022-12-29T00:44:19;12.27;;;1.30;;
71423;SDS011;59240;51.370;-0.486;2022-12-29T00:46:46;21.20;;;1.50;;
71423;SDS011;59240;51.370;-0.486;2022-12-29T00:49:13;16.30;;;0.70;;
71423;SDS011;59240;51.370;-0.486;2022-12-29T00:54:31;11.50;;;1.48;;
71423;SDS011;59240;51.370;-0.486;2022-12-29T00:56:59;12.18;;;1.23;;
71423;SDS011;59240;51.370;-0.486;2022-12-29T00:59:25;15.50;;;1.80;;
71423;SDS011;59240;51.370;-0.486;2022-12-29T01:01:52;14.20;;;1.37;;
71423;SDS011;59240;51.370;-0.486;2022-12-29T01:04:20;6.50;;;0.75;;
71423;SDS011;59240;51.370;-0.486;2022-12-29T01:06:48;12.93;;;1.73;;
71423;SDS011;59240;51.370;-0.486;2022-12-29T01:09:16;10.13;;;1.77;;
71423;SDS011;59240;51.370;-0.486;2022-12-29T01:12:02;18.15;;;1.65;;
71423;SDS011;59240;51.370;-0.486;2022-12-29T01:14:29;13.33;;;1.40;;
71423;SDS011;59240;51.370;-0.486;2022-12-29T01:16:56;13.05;;;1.15;;
71423;SDS011;59240;51.370;-0.486;2022-12-29T01:19:23;12.93;;;1.35;;
71423;SDS011;59240;51.370;-0.486;2022-12-29T01:21:50;18.13;;;1.08;;
71423;SDS011;59240;51.370;-0.486;2022-12-29T01:24:18;6.88;;;1.08;;
71423;SDS011;59240;51.370;-0.486;2022-12-29T01:26:46;17.50;;;1.07;;
71423;SDS011;59240;51.370;-0.486;2022-12-29T01:29:13;12.63;;;1.65;;
71423;SDS011;59240;51.370;-0.486;2022-12-29T01:31:39;19.83;;;1.50;;
71423;SDS011;59240;51.370;-0.486;2022-12-29T01:34:06;18.00;;;2.03;;
71423;SDS011;59240;51.370;-0.486;2022-12-29T01:36:33;11.60;;;1.40;;
71423;SDS011;59240;51.370;-0.486;2022-12-29T01:39:00;19.27;;;1.97;;
71423;SDS011;59240;51.370;-0.486;2022-12-29T01:41:26;15.48;;;1.77;;
71423;SDS011;59240;51.370;-0.486;2022-12-29T01:43:54;10.20;;;1.08;;
71423;SDS011;59240;51.370;-0.486;2022-12-29T01:51:35;17.33;;;1.57;;
71423;SDS011;59240;51.370;-0.486;2022-12-29T01:54:17;8.82;;;0.93;;
71423;SDS011;59240;51.370;-0.486;2022-12-29T01:56:51;14.52;;;1.05;;
71423;SDS011;59240;51.370;-0.486;2022-12-29T01:59:20;10.98;;;1.17;;
71423;SDS011;59240;51.370;-0.486;2022-12-29T02:01:51;5.85;;;0.70;;
71423;SDS011;59240;51.370;-0.486;2022-12-29T02:04:17;11.63;;;1.30;;
71423;SDS011;59240;51.370;-0.486;2022-12-29T02:06:55;17.65;;;1.30;;
71423;SDS011;59240;51.370;-0.486;2022-12-29T02:09:27;16.73;;;1.75;;
71423;SDS011;59240;51.370;-0.486;2022-12-29T02:11:53;11.10;;;1.67;;
71423;SDS011;59240;51.370;-0.486;2022-12-29T02:14:21;9.85;;;1.85;;
71423;SDS011;59240;51.370;-0.486;2022-12-29T02:31:42;17.57;;;1.73;;
71423;SDS011;59240;51.370;-0.486;2022-12-29T02:37:25;14.45;;;2.33;;
71423;SDS011;59240;51.370;-0.486;2022-12-29T02:40:11;9.05;;;1.05;;
71423;SDS011;59240;51.370;-0.486;2022-12-29T02:42:51;14.43;;;1.40;;
71423;SDS011;59240;51.370;-0.486;2022-12-29T02:48:32;16.30;;;1.38;;
71423;SDS011;59240;51.370;-0.486;2022-12-29T02:53:52;13.73;;;2.00;;
71423;SDS011;59240;51.370;-0.486;2022-12-29T02:56:40;18.90;;;2.30;;
71423;SDS011;59240;51.370;-0.486;2022-12-29T02:59:06;13.93;;;1.27;;
71423;SDS011;59240;51.370;-0.486;2022-12-29T03:01:53;22.13;;;1.92;;
71423;SDS011;59240;51.370;-0.486;2022-12-29T03:13:24;11.77;;;1.57;;
71423;SDS011;59240;51.370;-0.486;2022-12-29T03:23:31;13.02;;;1.85;;
71423;SDS011;59240;51.370;-0.486;2022-12-29T03:26:01;16.05;;;1.50;;
71423;SDS011;59240;51.370;-0.486;2022-12-29T03:28:37;13.73;;;1.40;;
71423;SDS011;59240;51.370;-0.486;2022-12-29T03:31:08;24.10;;;2.78;;
71423;SDS011;59240;51.370;-0.486;2022-12-29T03:33:36;21.35;;;1.92;;
71423;SDS011;59240;51.370;-0.486;2022-12-29T03:36:07;12.45;;;1.33;;
71423;SDS011;59240;51.370;-0.486;2022-12-29T03:38:44;12.48;;;2.13;;
71423;SDS011;59240;51.370;-0.486;2022-12-29T03:41:16;11.93;;;1.67;;
71423;SDS011;59240;51.370;-0.486;2022-12-29T03:43:46;19.77;;;2.78;;
71423;SDS011;59240;51.370;-0.486;2022-12-29T03:46:13;17.55;;;1.50;;
71423;SDS011;59240;51.370;-0.486;2022-12-29T03:48:40;21.80;;;2.38;;
71423;SDS011;59240;51.370;-0.486;2022-12-29T03:51:06;18.88;;;2.00;;
71423;SDS011;59240;51.370;-0.486;2022-12-29T03:53:33;24.50;;;2.63;;
71423;SDS011;59240;51.370;-0.486;2022-12-29T03:55:59;23.45;;;2.50;;
71423;SDS011;59240;51.370;-0.486;2022-12-29T03:58:26;17.98;;;2.53;;
71423;SDS011;59240;51.370;-0.486;2022-12-29T04:00:53;16.33;;;1.27;;
71423;SDS011;59240;51.370;-0.486;2022-12-29T04:03:19;16.52;;;2.13;;
71423;SDS011;59240;51.370;-0.486;2022-12-29T04:05:46;18.77;;;1.77;;
71423;SDS011;59240;51.370;-0.486;2022-12-29T04:08:13;17.55;;;2.15;;
71423;SDS011;59240;51.370;-0.486;2022-12-29T04:10:39;17.55;;;1.92;;
71423;SDS011;59240;51.370;-0.486;2022-12-29T04:13:06;18.17;;;1.55;;
71423;SDS011;59240;51.370;-0.486;2022-12-29T04:15:33;15.68;;;1.58;;
71423;SDS011;59240;51.370;-0.486;2022-12-29T04:17:59;11.33;;;1.40;;
71423;SDS011;59240;51.370;-0.486;2022-12-29T04:20:26;23.80;;;2.25;;
71423;SDS011;59240;51.370;-0.486;2022-12-29T04:23:11;11.10;;;1.60;;
71423;SDS011;59240;51.370;-0.486;2022-12-29T04:25:37;14.18;;;1.33;;
71423;SDS011;59240;51.370;-0.486;2022-12-29T04:28:04;12.48;;;1.67;;
71423;SDS011;59240;51.370;-0.486;2022-12-29T04:30:31;16.70;;;1.60;;
71423;SDS011;59240;51.370;-0.486;2022-12-29T04:32:58;10.18;;;1.40;;
71423;SDS011;59240;51.370;-0.486;2022-12-29T04:35:24;15.95;;;1.75;;
71423;SDS011;59240;51.370;-0.486;2022-12-29T04:37:51;13.07;;;1.77;;
71423;SDS011;59240;51.370;-0.486;2022-12-29T04:40:17;12.23;;;1.00;;
71423;SDS011;59240;51.370;-0.486;2022-12-29T04:42:44;18.17;;;1.23;;
71423;SDS011;59240;51.370;-0.486;2022-12-29T04:45:10;17.63;;;1.77;;
71423;SDS011;59240;51.370;-0.486;2022-12-29T04:47:37;15.02;;;1.75;;
71423;SDS011;59240;51.370;-0.486;2022-12-29T04:50:04;18.70;;;2.00;;
71423;SDS011;59240;51.370;-0.486;2022-12-29T04:52:31;16.30;;;1.42;;
71423;SDS011;59240;51.370;-0.486;2022-12-29T04:54:57;14.00;;;1.33;;
71423;SDS011;59240;51.370;-0.486;2022-12-29T04:57:24;16.75;;;1.60;;
71423;SDS011;59240;51.370;-0.486;2022-12-29T04:59:50;13.27;;;1.17;;
71423;SDS011;59240;51.370;-0.486;2022-12-29T05:02:17;17.17;;;1.42;;
71423;SDS011;59240;51.370;-0.486;2022-12-29T05:04:44;17.65;;;1.45;;
71423;SDS011;59240;51.370;-0.486;2022-12-29T05:07:11;16.37;;;1.83;;
71423;SDS011;59240;51.370;-0.486;2022-12-29T05:09:37;12.13;;;1.52;;
71423;SDS011;59240;51.370;-0.486;2022-12-29T05:12:04;12.13;;;1.52;;
71423;SDS011;59240;51.370;-0.486;2022-12-29T05:14:31;8.55;;;1.10;;
71423;SDS011;59240;51.370;-0.486;2022-12-29T05:16:58;19.35;;;1.60;;
71423;SDS011;59240;51.370;-0.486;2022-12-29T05:19:25;10.87;;;1.60;;
71423;SDS011;59240;51.370;-0.486;2022-12-29T05:21:51;9.73;;;1.10;;
71423;SDS011;59240;51.370;-0.486;2022-12-29T05:24:18;13.40;;;1.20;;
71423;SDS011;59240;51.370;-0.486;2022-12-29T05:26:44;10.55;;;1.10;;
71423;SDS011;59240;51.370;-0.486;2022-12-29T05:29:11;11.88;;;1.10;;
71423;SDS011;59240;51.370;-0.486;2022-12-29T05:31:37;16.83;;;1.40;;
71423;SDS011;59240;51.370;-0.486;2022-12-29T05:34:04;16.50;;;1.00;;
71423;SDS011;59240;51.370;-0.486;2022-12-29T05:36:31;12.48;;;1.80;;
71423;SDS011;59240;51.370;-0.486;2022-12-29T05:39:03;9.35;;;0.75;;
71423;SDS011;59240;51.370;-0.486;2022-12-29T05:41:30;13.85;;;1.40;;
71423;SDS011;59240;51.370;-0.486;2022-12-29T05:43:57;7.57;;;0.50;;
71423;SDS011;59240;51.370;-0.486;2022-12-29T05:46:23;10.05;;;0.90;;
71423;SDS011;59240;51.370;-0.486;2022-12-29T05:48:50;11.38;;;1.33;;
71423;SDS011;59240;51.370;-0.486;2022-12-29T05:51:17;6.38;;;0.40;;
71423;SDS011;59240;51.370;-0.486;2022-12-29T05:53:43;7.53;;;0.95;;
71423;SDS011;59240;51.370;-0.486;2022-12-29T05:56:10;10.13;;;0.97;;
71423;SDS011;59240;51.370;-0.486;2022-12-29T05:58:36;5.95;;;0.47;;
71423;SDS011;59240;51.370;-0.486;2022-12-29T06:01:03;12.32;;;0.82;;
71423;SDS011;59240;51.370;-0.486;2022-12-29T06:03:29;13.93;;;0.93;;
71423;SDS011;59240;51.370;-0.486;2022-12-29T06:05:56;11.57;;;0.85;;
71423;SDS011;59240;51.370;-0.486;2022-12-29T06:08:23;6.40;;;0.40;;
71423;SDS011;59240;51.370;-0.486;2022-12-29T06:10:49;6.45;;;0.45;;
71423;SDS011;59240;51.370;-0.486;2022-12-29T06:13:16;7.95;;;0.40;;
71423;SDS011;59240;51.370;-0.486;2022-12-29T06:15:43;6.85;;;0.30;;
71423;SDS011;59240;51.370;-0.486;2022-12-29T06:18:09;7.32;;;0.60;;
71423;SDS011;59240;51.370;-0.486;2022-12-29T06:20:44;4.43;;;0.23;;
71423;SDS011;59240;51.370;-0.486;2022-12-29T06:23:11;4.40;;;0.32;;
71423;SDS011;59240;51.370;-0.486;2022-12-29T06:25:40;4.88;;;0.57;;
71423;SDS011;59240;51.370;-0.486;2022-12-29T06:28:07;3.88;;;0.28;;
71423;SDS011;59240;51.370;-0.486;2022-12-29T06:30:33;5.22;;;0.57;;
71423;SDS011;59240;51.370;-0.486;2022-12-29T06:33:00;5.30;;;0.37;;
71423;SDS011;59240;51.370;-0.486;2022-12-29T06:35:26;4.50;;;0.40;;
71423;SDS011;59240;51.370;-0.486;2022-12-29T06:37:53;3.75;;;0.65;;
71423;SDS011;59240;51.370;-0.486;2022-12-29T06:40:20;6.80;;;0.45;;
71423;SDS011;59240;51.370;-0.486;2022-12-29T06:42:47;5.95;;;0.85;;
71423;SDS011;59240;51.370;-0.486;2022-12-29T06:45:14;1.27;;;0.00;;
71423;SDS011;59240;51.370;-0.486;2022-12-29T06:47:42;4.10;;;0.30;;
71423;SDS011;59240;51.370;-0.486;2022-12-29T06:50:09;3.40;;;0.20;;
71423;SDS011;59240;51.370;-0.486;2022-12-29T06:52:35;7.15;;;0.25;;
71423;SDS011;59240;51.370;-0.486;2022-12-29T06:55:02;8.02;;;0.40;;
71423;SDS011;59240;51.370;-0.486;2022-12-29T06:57:28;7.10;;;0.50;;
71423;SDS011;59240;51.370;-0.486;2022-12-29T06:59:55;8.95;;;1.00;;
71423;SDS011;59240;51.370;-0.486;2022-12-29T07:02:22;9.90;;;1.05;;
71423;SDS011;59240;51.370;-0.486;2022-12-29T07:04:51;10.43;;;0.50;;
71423;SDS011;59240;51.370;-0.486;2022-12-29T07:07:19;3.80;;;0.45;;
71423;SDS011;59240;51.370;-0.486;2022-12-29T07:09:46;7.63;;;0.50;;
71423;SDS011;59240;51.370;-0.486;2022-12-29T07:12:13;5.80;;;0.22;;
71423;SDS011;59240;51.370;-0.486;2022-12-29T07:14:39;7.63;;;0.60;;
71423;SDS011;59240;51.370;-0.486;2022-12-29T07:17:08;4.63;;;0.65;;
71423;SDS011;59240;51.370;-0.486;2022-12-29T07:19:35;3.83;;;0.30;;
71423;SDS011;59240;51.370;-0.486;2022-12-29T07:22:02;4.30;;;0.37;;
71423;SDS011;59240;51.370;-0.486;2022-12-29T07:24:28;4.97;;;0.40;;
71423;SDS011;59240;51.370;-0.486;2022-12-29T07:26:56;5.95;;;0.30;;
71423;SDS011;59240;51.370;-0.486;2022-12-29T07:29:22;6.13;;;0.28;;
71423;SDS011;59240;51.370;-0.486;2022-12-29T07:31:49;5.15;;;0.10;;
71423;SDS011;59240;51.370;-0.486;2022-12-29T07:34:16;9.30;;;0.77;;
71423;SDS011;59240;51.370;-0.486;2022-12-29T07:36:42;4.53;;;0.25;;
71423;SDS011;59240;51.370;-0.486;2022-12-29T07:39:09;7.72;;;0.50;;
71423;SDS011;59240;51.370;-0.486;2022-12-29T07:41:36;8.13;;;0.60;;
71423;SDS011;59240;51.370;-0.486;2022-12-29T07:44:03;5.95;;;0.40;;
71423;SDS011;59240;51.370;-0.486;2022-12-29T07:46:30;3.30;;;0.40;;
71423;SDS011;59240;51.370;-0.486;2022-12-29T07:49:16;7.20;;;0.28;;
71423;SDS011;59240;51.370;-0.486;2022-12-29T07:51:43;6.85;;;0.60;;
71423;SDS011;59240;51.370;-0.486;2022-12-29T07:54:09;7.32;;;0.40;;
71423;SDS011;59240;51.370;-0.486;2022-12-29T07:56:36;4.40;;;0.10;;
71423;SDS011;59240;51.370;-0.486;2022-12-29T07:59:03;4.20;;;0.30;;
71423;SDS011;59240;51.370;-0.486;2022-12-29T08:01:29;4.47;;;0.45;;
71423;SDS011;59240;51.370;-0.486;2022-12-29T08:03:56;2.97;;;0.47;;
71423;SDS011;59240;51.370;-0.486;2022-12-29T08:06:23;5.75;;;0.25;;
71423;SDS011;59240;51.370;-0.486;2022-12-29T08:08:49;6.15;;;0.50;;
71423;SDS011;59240;51.370;-0.486;2022-12-29T08:11:16;5.27;;;0.43;;
71423;SDS011;59240;51.370;-0.486;2022-12-29T08:13:42;6.50;;;0.57;;
71423;SDS011;59240;51.370;-0.486;2022-12-29T08:16:09;6.93;;;0.50;;
71423;SDS011;59240;51.370;-0.486;2022-12-29T08:18:36;5.10;;;0.52;;
71423;SDS011;59240;51.370;-0.486;2022-12-29T08:21:03;4.47;;;0.93;;
71423;SDS011;59240;51.370;-0.486;2022-12-29T08:23:30;7.63;;;0.40;;
71423;SDS011;59240;51.370;-0.486;2022-12-29T08:26:01;3.25;;;0.20;;
71423;SDS011;59240;51.370;-0.486;2022-12-29T08:28:29;7.80;;;0.40;;
71423;SDS011;59240;51.370;-0.486;2022-12-29T08:30:57;3.63;;;0.20;;
71423;SDS011;59240;51.370;-0.486;2022-12-29T08:33:25;9.25;;;0.75;;
71423;SDS011;59240;51.370;-0.486;2022-12-29T08:35:52;5.20;;;0.73;;
71423;SDS011;59240;51.370;-0.486;2022-12-29T08:38:18;4.95;;;0.38;;
71423;SDS011;59240;51.370;-0.486;2022-12-29T08:40:45;9.43;;;0.50;;
71423;SDS011;59240;51.370;-0.486;2022-12-29T08:43:11;6.53;;;0.75;;
71423;SDS011;59240;51.370;-0.486;2022-12-29T08:45:43;9.63;;;0.50;;
71423;SDS011;59240;51.370;-0.486;2022-12-29T08:48:10;5.00;;;0.40;;
71423;SDS011;59240;51.370;-0.486;2022-12-29T08:50:36;4.80;;;0.25;;
71423;SDS011;59240;51.370;-0.486;2022-12-29T08:53:03;5.00;;;0.50;;
71423;SDS011;59240;51.370;-0.486;2022-12-29T08:55:29;5.95;;;0.45;;
71423;SDS011;59240;51.370;-0.486;2022-12-29T08:57:56;2.05;;;0.10;;
71423;SDS011;59240;51.370;-0.486;2022-12-29T09:00:22;4.87;;;0.40;;
71423;SDS011;59240;51.370;-0.486;2022-12-29T09:02:49;7.78;;;1.02;;
71423;SDS011;59240;51.370;-0.486;2022-12-29T09:05:16;6.05;;;0.40;;
71423;SDS011;59240;51.370;-0.486;2022-12-29T09:07:43;6.25;;;0.60;;
71423;SDS011;59240;51.370;-0.486;2022-12-29T09:10:10;3.13;;;0.30;;
71423;SDS011;59240;51.370;-0.486;2022-12-29T09:12:36;6.47;;;0.40;;
71423;SDS011;59240;51.370;-0.486;2022-12-29T09:15:03;6.13;;;0.20;;
71423;SDS011;59240;51.370;-0.486;2022-12-29T09:17:31;6.38;;;0.40;;
71423;SDS011;59240;51.370;-0.486;2022-12-29T09:20:14;4.13;;;0.20;;
71423;SDS011;59240;51.370;-0.486;2022-12-29T09:22:42;6.53;;;0.30;;
71423;SDS011;59240;51.370;-0.486;2022-12-29T09:25:10;7.40;;;0.47;;
71423;SDS011;59240;51.370;-0.486;2022-12-29T09:27:37;5.65;;;0.35;;
71423;SDS011;59240;51.370;-0.486;2022-12-29T09:30:05;6.72;;;0.50;;
71423;SDS011;59240;51.370;-0.486;2022-12-29T09:32:34;4.00;;;0.20;;
71423;SDS011;59240;51.370;-0.486;2022-12-29T09:35:08;4.43;;;0.20;;
71423;SDS011;59240;51.370;-0.486;2022-12-29T09:37:35;3.63;;;0.10;;
71423;SDS011;59240;51.370;-0.486;2022-12-29T09:40:02;3.40;;;0.20;;
71423;SDS011;59240;51.370;-0.486;2022-12-29T09:45:43;1.63;;;0.10;;
71423;SDS011;59240;51.370;-0.486;2022-12-29T09:48:19;5.88;;;0.43;;
71423;SDS011;59240;51.370;-0.486;2022-12-29T09:50:59;2.27;;;0.20;;
71423;SDS011;59240;51.370;-0.486;2022-12-29T09:53:42;1.55;;;0.10;;
71423;SDS011;59240;51.370;-0.486;2022-12-29T09:56:18;3.67;;;0.20;;
71423;SDS011;59240;51.370;-0.486;2022-12-29T09:58:58;3.72;;;0.10;;
71423;SDS011;59240;51.370;-0.486;2022-12-29T10:01:32;1.85;;;0.28;;
71423;SDS011;59240;51.370;-0.486;2022-12-29T10:04:03;1.97;;;0.10;;
71423;SDS011;59240;51.370;-0.486;2022-12-29T10:09:34;2.95;;;0.10;;
71423;SDS011;59240;51.370;-0.486;2022-12-29T10:17:54;3.53;;;0.30;;
71423;SDS011;59240;51.370;-0.486;2022-12-29T10:20:47;2.65;;;0.28;;
71423;SDS011;59240;51.370;-0.486;2022-12-29T10:23:29;5.05;;;0.10;;
71423;SDS011;59240;51.370;-0.486;2022-12-29T10:26:02;3.08;;;0.40;;
71423;SDS011;59240;51.370;-0.486;2022-12-29T10:28:40;5.20;;;0.15;;
71423;SDS011;59240;51.370;-0.486;2022-12-29T10:31:15;4.90;;;0.37;;
71423;SDS011;59240;51.370;-0.486;2022-12-29T10:33:48;4.55;;;0.30;;
71423;SDS011;59240;51.370;-0.486;2022-12-29T10:36:19;3.08;;;0.20;;
71423;SDS011;59240;51.370;-0.486;2022-12-29T10:41:38;4.50;;;0.30;;
71423;SDS011;59240;51.370;-0.486;2022-12-29T10:44:11;3.53;;;0.13;;
71423;SDS011;59240;51.370;-0.486;2022-12-29T10:46:41;4.40;;;0.35;;
71423;SDS011;59240;51.370;-0.486;2022-12-29T10:49:16;2.97;;;0.30;;
71423;SDS011;59240;51.370;-0.486;2022-12-29T10:51:47;2.90;;;0.28;;
71423;SDS011;59240;51.370;-0.486;2022-12-29T10:54:20;3.13;;;0.20;;
71423;SDS011;59240;51.370;-0.486;2022-12-29T10:57:03;4.40;;;0.30;;
71423;SDS011;59240;51.370;-0.486;2022-12-29T10:59:36;1.90;;;0.22;;
71423;SDS011;59240;51.370;-0.486;2022-12-29T11:07:18;3.72;;;0.40;;
71423;SDS011;59240;51.370;-0.486;2022-12-29T11:09:52;5.80;;;0.70;;
71423;SDS011;59240;51.370;-0.486;2022-12-29T11:12:20;4.65;;;0.20;;
71423;SDS011;59240;51.370;-0.486;2022-12-29T11:17:48;5.43;;;0.40;;
71423;SDS011;59240;51.370;-0.486;2022-12-29T11:20:33;5.75;;;1.40;;
71423;SDS011;59240;51.370;-0.486;2022-12-29T11:23:02;6.07;;;0.60;;
71423;SDS011;59240;51.370;-0.486;2022-12-29T11:25:30;3.67;;;0.22;;
71423;SDS011;59240;51.370;-0.486;2022-12-29T11:28:02;5.13;;;0.47;;
71423;SDS011;59240;51.370;-0.486;2022-12-29T11:30:42;2.55;;;0.40;;
71423;SDS011;59240;51.370;-0.486;2022-12-29T11:33:09;8.60;;;0.60;;
71423;SDS011;59240;51.370;-0.486;2022-12-29T11:35:40;3.80;;;0.57;;
71423;SDS011;59240;51.370;-0.486;2022-12-29T11:38:18;7.68;;;0.30;;
71423;SDS011;59240;51.370;-0.486;2022-12-29T11:40:48;7.32;;;0.52;;
71423;SDS011;59240;51.370;-0.486;2022-12-29T11:43:21;8.18;;;0.63;;
71423;SDS011;59240;51.370;-0.486;2022-12-29T11:45:54;7.25;;;0.90;;
71423;SDS011;59240;51.370;-0.486;2022-12-29T11:48:22;5.50;;;0.60;;
71423;SDS011;59240;51.370;-0.486;2022-12-29T11:50:53;6.93;;;0.60;;
71423;SDS011;59240;51.370;-0.486;2022-12-29T11:56:08;9.75;;;0.68;;
71423;SDS011;59240;51.370;-0.486;2022-12-29T11:58:37;5.32;;;0.38;;
71423;SDS011;59240;51.370;-0.486;2022-12-29T12:01:21;7.67;;;0.53;;
71423;SDS011;59240;51.370;-0.486;2022-12-29T12:06:23;8.02;;;0.52;;
71423;SDS011;59240;51.370;-0.486;2022-12-29T12:08:59;6.75;;;0.60;;
71423;SDS011;59240;51.370;-0.486;2022-12-29T12:11:32;5.65;;;0.47;;
71423;SDS011;59240;51.370;-0.486;2022-12-29T12:14:05;11.23;;;1.00;;
71423;SDS011;59240;51.370;-0.486;2022-12-29T12:16:40;5.68;;;0.45;;
71423;SDS011;59240;51.370;-0.486;2022-12-29T12:21:40;8.77;;;0.55;;
71423;SDS011;59240;51.370;-0.486;2022-12-29T12:27:19;10.20;;;0.40;;
71423;SDS011;59240;51.370;-0.486;2022-12-29T12:29:58;10.38;;;0.63;;
71423;SDS011;59240;51.370;-0.486;2022-12-29T12:32:46;5.95;;;0.68;;
71423;SDS011;59240;51.370;-0.486;2022-12-29T12:41:16;5.73;;;0.40;;
71423;SDS011;59240;51.370;-0.486;2022-12-29T13:00:32;9.00;;;0.73;;
71423;SDS011;59240;51.370;-0.486;2022-12-29T13:18:11;9.90;;;0.82;;
71423;SDS011;59240;51.370;-0.486;2022-12-29T13:20:57;5.25;;;0.63;;
71423;SDS011;59240;51.370;-0.486;2022-12-29T13:28:59;9.93;;;1.63;;
71423;SDS011;59240;51.370;-0.486;2022-12-29T13:37:33;9.30;;;1.40;;
71423;SDS011;59240;51.370;-0.486;2022-12-29T13:40:12;10.55;;;1.00;;
71423;SDS011;59240;51.370;-0.486;2022-12-29T13:42:43;5.60;;;0.57;;
71423;SDS011;59240;51.370;-0.486;2022-12-29T13:45:15;5.57;;;0.80;;
71423;SDS011;59240;51.370;-0.486;2022-12-29T13:47:54;7.65;;;0.60;;
71423;SDS011;59240;51.370;-0.486;2022-12-29T13:50:27;7.40;;;0.77;;
71423;SDS011;59240;51.370;-0.486;2022-12-29T13:58:46;17.45;;;1.00;;
71423;SDS011;59240;51.370;-0.486;2022-12-29T14:04:11;13.33;;;0.57;;
71423;SDS011;59240;51.370;-0.486;2022-12-29T14:06:40;10.00;;;0.88;;
71423;SDS011;59240;51.370;-0.486;2022-12-29T14:17:37;7.27;;;0.70;;
71423;SDS011;59240;51.370;-0.486;2022-12-29T14:20:17;7.88;;;0.82;;
71423;SDS011;59240;51.370;-0.486;2022-12-29T14:23:00;7.70;;;0.43;;
71423;SDS011;59240;51.370;-0.486;2022-12-29T14:28:49;12.15;;;0.80;;
71423;SDS011;59240;51.370;-0.486;2022-12-29T14:39:33;3.83;;;0.47;;
71423;SDS011;59240;51.370;-0.486;2022-12-29T14:44:51;7.53;;;0.70;;
71423;SDS011;59240;51.370;-0.486;2022-12-29T14:50:07;7.63;;;0.95;;
71423;SDS011;59240;51.370;-0.486;2022-12-29T14:55:41;6.78;;;0.70;;
71423;SDS011;59240;51.370;-0.486;2022-12-29T14:58:17;7.27;;;0.50;;
71423;SDS011;59240;51.370;-0.486;2022-12-29T15:00:47;6.55;;;0.55;;
71423;SDS011;59240;51.370;-0.486;2022-12-29T15:05:45;2.75;;;0.73;;
71423;SDS011;59240;51.370;-0.486;2022-12-29T15:08:22;6.18;;;0.32;;
71423;SDS011;59240;51.370;-0.486;2022-12-29T15:11:02;7.83;;;0.53;;
71423;SDS011;59240;51.370;-0.486;2022-12-29T15:13:36;10.90;;;0.80;;
71423;SDS011;59240;51.370;-0.486;2022-12-29T15:16:04;13.98;;;1.10;;
71423;SDS011;59240;51.370;-0.486;2022-12-29T15:18:46;8.88;;;0.80;;
71423;SDS011;59240;51.370;-0.486;2022-12-29T15:21:13;7.22;;;0.95;;
71423;SDS011;59240;51.370;-0.486;2022-12-29T15:23:47;5.47;;;0.33;;
71423;SDS011;59240;51.370;-0.486;2022-12-29T15:26:14;5.25;;;0.70;;
71423;SDS011;59240;51.370;-0.486;2022-12-29T15:28:47;8.80;;;1.25;;
71423;SDS011;59240;51.370;-0.486;2022-12-29T15:31:21;9.98;;;0.90;;
71423;SDS011;59240;51.370;-0.486;2022-12-29T15:34:07;8.15;;;0.85;;
71423;SDS011;59240;51.370;-0.486;2022-12-29T15:36:38;9.53;;;1.00;;
71423;SDS011;59240;51.370;-0.486;2022-12-29T15:39:20;7.38;;;0.52;;
71423;SDS011;59240;51.370;-0.486;2022-12-29T15:41:59;6.07;;;0.75;;
71423;SDS011;59240;51.370;-0.486;2022-12-29T15:44:40;6.90;;;0.98;;
71423;SDS011;59240;51.370;-0.486;2022-12-29T15:47:15;9.70;;;0.60;;
71423;SDS011;59240;51.370;-0.486;2022-12-29T15:49:44;8.27;;;1.13;;
71423;SDS011;59240;51.370;-0.486;2022-12-29T15:52:18;9.88;;;0.60;;
71423;SDS011;59240;51.370;-0.486;2022-12-29T15:54:50;9.10;;;1.02;;
71423;SDS011;59240;51.370;-0.486;2022-12-29T15:57:24;12.25;;;1.13;;
71423;SDS011;59240;51.370;-0.486;2022-12-29T15:59:52;7.03;;;1.02;;
71423;SDS011;59240;51.370;-0.486;2022-12-29T16:02:21;5.93;;;0.40;;
71423;SDS011;59240;51.370;-0.486;2022-12-29T16:04:49;12.13;;;1.23;;
71423;SDS011;59240;51.370;-0.486;2022-12-29T16:07:36;6.43;;;1.02;;
71423;SDS011;59240;51.370;-0.486;2022-12-29T16:15:45;10.60;;;0.50;;
71423;SDS011;59240;51.370;-0.486;2022-12-29T16:21:18;12.27;;;0.80;;
71423;SDS011;59240;51.370;-0.486;2022-12-29T16:23:49;10.20;;;0.80;;
71423;SDS011;59240;51.370;-0.486;2022-12-29T16:26:18;10.10;;;0.90;;
71423;SDS011;59240;51.370;-0.486;2022-12-29T16:28:47;7.37;;;0.80;;
71423;SDS011;59240;51.370;-0.486;2022-12-29T16:31:18;9.68;;;0.93;;
71423;SDS011;59240;51.370;-0.486;2022-12-29T16:33:54;16.00;;;0.93;;
71423;SDS011;59240;51.370;-0.486;2022-12-29T16:39:04;11.18;;;0.93;;
71423;SDS011;59240;51.370;-0.486;2022-12-29T16:41:37;13.93;;;1.37;;
71423;SDS011;59240;51.370;-0.486;2022-12-29T16:44:24;7.13;;;0.98;;
71423;SDS011;59240;51.370;-0.486;2022-12-29T16:49:36;9.43;;;0.90;;
71423;SDS011;59240;51.370;-0.486;2022-12-29T16:52:18;11.98;;;1.38;;
71423;SDS011;59240;51.370;-0.486;2022-12-29T16:54:58;11.03;;;1.30;;
71423;SDS011;59240;51.370;-0.486;2022-12-29T16:57:29;7.40;;;1.05;;
71423;SDS011;59240;51.370;-0.486;2022-12-29T17:00:00;9.95;;;1.20;;
71423;SDS011;59240;51.370;-0.486;2022-12-29T17:02:29;13.10;;;1.10;;
71423;SDS011;59240;51.370;-0.486;2022-12-29T17:04:57;8.82;;;1.00;;
71423;SDS011;59240;51.370;-0.486;2022-12-29T17:07:25;8.87;;;1.30;;
71423;SDS011;59240;51.370;-0.486;2022-12-29T17:09:53;9.68;;;0.85;;
71423;SDS011;59240;51.370;-0.486;2022-12-29T17:12:22;9.32;;;1.05;;
71423;SDS011;59240;51.370;-0.486;2022-12-29T17:14:55;11.68;;;1.10;;
71423;SDS011;59240;51.370;-0.486;2022-12-29T17:19:59;12.00;;;1.00;;
71423;SDS011;59240;51.370;-0.486;2022-12-29T17:22:29;6.43;;;0.65;;
71423;SDS011;59240;51.370;-0.486;2022-12-29T17:24:57;10.18;;;0.80;;
71423;SDS011;59240;51.370;-0.486;2022-12-29T17:30:20;5.38;;;0.60;;
71423;SDS011;59240;51.370;-0.486;2022-12-29T17:35:26;12.93;;;1.27;;
71423;SDS011;59240;51.370;-0.486;2022-12-29T17:37:53;7.35;;;0.73;;
71423;SDS011;59240;51.370;-0.486;2022-12-29T17:40:21;9.93;;;0.77;;
71423;SDS011;59240;51.370;-0.486;2022-12-29T17:42:58;8.55;;;0.63;;
71423;SDS011;59240;51.370;-0.486;2022-12-29T17:45:26;14.43;;;1.23;;
71423;SDS011;59240;51.370;-0.486;2022-12-29T17:47:54;7.25;;;0.68;;
71423;SDS011;59240;51.370;-0.486;2022-12-29T17:50:22;11.75;;;1.10;;
71423;SDS011;59240;51.370;-0.486;2022-12-29T17:52:55;9.43;;;1.35;;
71423;SDS011;59240;51.370;-0.486;2022-12-29T17:55:26;13.68;;;1.88;;
71423;SDS011;59240;51.370;-0.486;2022-12-29T17:58:10;10.97;;;1.10;;
71423;SDS011;59240;51.370;-0.486;2022-12-29T18:00:42;7.47;;;1.10;;
71423;SDS011;59240;51.370;-0.486;2022-12-29T18:03:20;9.73;;;1.40;;
71423;SDS011;59240;51.370;-0.486;2022-12-29T18:05:53;5.68;;;0.88;;